KARR/ARR METAR and TAF weather

Enter ICAO airport designator
Station Type Date Time Source
KARR METAR 2020/09/19 01:52 UTC NOAA

KARR 190152Z AUTO 06006KT 10SM CLR 08/04 A3037 RMK AO2 SLP286 T00830044


Station Type Date Time Source
KARR Decoded METAR 2020/09/19 01:52 UTC NOAA

CHICAGO AURORA MUNICIPAL, IL, United States (KARR) 41-46N 088-28W 215M
Sep 18, 2020 - 09:52 PM EDT / 2020.09.19 0152 UTC
Wind: from the ENE (060 degrees) at 7 MPH (6 KT):0
Visibility: 10 mile(s):0
Sky conditions: clear
Temperature: 46.9 F (8.3 C)
Dew Point: 39.9 F (4.4 C)
Relative Humidity: 76%
Pressure (altimeter): 30.37 in. Hg (1028 hPa)
ob: KARR 190152Z AUTO 06006KT 10SM CLR 08/04 A3037 RMK AO2 SLP286 T00830044
cycle: 2

Station Type Date Time Source
KARR TAF UTC NOAA

Error!

Example: see airport list